createdAt,value
2023-05-20T00:00:03.515Z,71.52
2023-05-20T00:01:03.590Z,71.52
2023-05-20T00:02:03.424Z,71.71
2023-05-20T00:03:04.719Z,72.00
2023-05-20T00:04:03.650Z,72.09
2023-05-20T00:05:03.376Z,72.29
2023-05-20T00:06:03.261Z,71.91
2023-05-20T00:07:05.678Z,72.58
2023-05-20T00:08:03.160Z,72.29
2023-05-20T00:09:04.253Z,72.96
2023-05-20T00:10:03.077Z,73.44
2023-05-20T00:11:03.036Z,73.82
2023-05-20T00:12:03.049Z,74.01
2023-05-20T00:13:02.992Z,74.11
2023-05-20T00:14:03.078Z,74.77
2023-05-20T00:15:02.862Z,75.02
2023-05-20T00:16:02.911Z,74.97
2023-05-20T00:17:02.771Z,75.35
2023-05-20T00:18:02.926Z,74.97
2023-05-20T00:19:02.988Z,75.31
2023-05-20T00:20:02.701Z,75.89
2023-05-20T00:21:02.612Z,75.31
2023-05-20T00:22:02.712Z,75.70
2023-05-20T00:23:02.515Z,75.79
2023-05-20T00:24:02.525Z,75.51
2023-05-20T00:25:02.713Z,75.70
2023-05-20T00:26:02.536Z,76.37
2023-05-20T00:27:02.337Z,76.27
2023-05-20T00:28:02.298Z,76.37
2023-05-20T00:29:02.256Z,77.04
2023-05-20T00:30:02.363Z,77.13
2023-05-20T00:31:02.212Z,77.04
2023-05-20T00:32:02.461Z,76.37
2023-05-20T00:33:02.173Z,76.65
2023-05-20T00:34:02.037Z,76.94
2023-05-20T00:35:02.002Z,76.84
2023-05-20T00:36:02.203Z,76.84
2023-05-20T00:37:02.056Z,76.84
2023-05-20T00:38:02.011Z,77.13
2023-05-20T00:39:01.820Z,77.04
2023-05-20T00:40:01.775Z,77.13
2023-05-20T00:41:01.726Z,77.00
2023-05-20T00:42:02.860Z,77.48
2023-05-20T00:43:01.681Z,78.05
2023-05-20T00:44:01.848Z,78.53
2023-05-20T00:45:01.552Z,78.24
2023-05-20T00:46:01.531Z,78.14
2023-05-20T00:47:01.468Z,78.53
2023-05-20T00:48:02.547Z,78.63
2023-05-20T00:49:01.410Z,78.72
2023-05-20T00:50:01.714Z,78.34
2023-05-20T00:51:01.345Z,78.53
2023-05-20T00:52:01.263Z,78.72
2023-05-20T00:53:01.302Z,78.81
2023-05-20T00:54:01.167Z,78.34
2023-05-20T00:55:01.316Z,79.00
2023-05-20T00:56:01.093Z,79.10
2023-05-20T00:57:02.358Z,79.29
2023-05-20T00:58:01.001Z,79.77
2023-05-20T00:59:01.138Z,79.44
2023-05-20T01:00:00.894Z,79.20
2023-05-20T01:01:00.976Z,80.35
2023-05-20T01:02:00.816Z,80.16
2023-05-20T01:03:01.247Z,80.06
2023-05-20T01:04:00.725Z,79.64
2023-05-20T01:05:01.794Z,80.06
2023-05-20T01:06:00.637Z,80.16
2023-05-20T01:07:00.797Z,80.16
2023-05-20T01:08:00.576Z,80.21
2023-05-20T01:09:00.600Z,80.02
2023-05-20T01:10:00.459Z,80.21
2023-05-20T01:11:00.628Z,80.21
2023-05-20T01:12:00.438Z,80.98
2023-05-20T01:13:00.639Z,80.88
2023-05-20T01:14:00.287Z,80.88
2023-05-20T01:15:00.241Z,81.36
2023-05-20T01:16:00.264Z,81.45
2023-05-20T01:17:00.245Z,81.45
2023-05-20T01:18:00.168Z,81.74
2023-05-20T01:19:00.292Z,81.93
2023-05-20T01:20:00.050Z,82.03
2023-05-20T01:20:59.973Z,82.60
2023-05-20T01:21:59.945Z,83.17
2023-05-20T01:23:00.099Z,82.89
2023-05-20T01:23:59.845Z,82.98
2023-05-20T01:25:01.126Z,83.17
2023-05-20T01:25:59.765Z,83.17
2023-05-20T01:26:59.734Z,82.94
2023-05-20T01:27:59.922Z,83.46
2023-05-20T01:28:59.631Z,83.51
2023-05-20T01:30:01.786Z,83.42
2023-05-20T01:30:59.609Z,83.61
2023-05-20T01:32:00.563Z,83.70
2023-05-20T01:32:59.503Z,83.90
2023-05-20T01:33:59.555Z,83.90
2023-05-20T01:34:59.365Z,84.76
2023-05-20T01:36:01.404Z,84.62
2023-05-20T01:36:59.413Z,85.00
2023-05-20T01:37:59.379Z,85.42
2023-05-20T01:38:59.184Z,85.62
2023-05-20T01:39:59.388Z,86.05
2023-05-20T01:40:59.093Z,85.77
2023-05-20T01:41:59.200Z,85.86
2023-05-20T01:42:59.030Z,86.05
2023-05-20T01:43:59.218Z,86.05
2023-05-20T01:44:58.922Z,85.67
2023-05-20T01:46:00.049Z,85.58
2023-05-20T01:47:01.374Z,85.67
2023-05-20T01:47:59.097Z,86.24
2023-05-20T01:48:58.747Z,86.53
2023-05-20T01:50:19.695Z,87.20
2023-05-20T01:50:58.672Z,87.48
2023-05-20T01:51:58.861Z,87.77
2023-05-20T01:52:58.571Z,88.63
2023-05-20T01:53:58.698Z,88.59
2023-05-20T01:54:58.683Z,88.34
2023-05-20T01:55:58.443Z,88.73
2023-05-20T01:56:58.391Z,88.15
2023-05-20T01:57:59.534Z,88.30
2023-05-20T01:58:58.305Z,89.30
2023-05-20T01:59:58.518Z,89.64
2023-05-20T02:00:58.235Z,89.54
2023-05-20T02:01:58.339Z,89.83
2023-05-20T02:02:58.145Z,90.59
2023-05-20T02:03:58.337Z,90.59
2023-05-20T02:04:58.034Z,89.64
2023-05-20T02:05:59.318Z,89.73
2023-05-20T02:06:57.943Z,90.02
2023-05-20T02:07:57.899Z,89.73
2023-05-20T02:08:57.861Z,89.54
2023-05-20T02:09:57.832Z,89.92
2023-05-20T02:10:59.010Z,89.64
2023-05-20T02:11:57.723Z,90.02
2023-05-20T02:12:58.819Z,90.31
2023-05-20T02:14:00.104Z,90.21
2023-05-20T02:14:57.590Z,90.11
2023-05-20T02:15:57.899Z,90.40
2023-05-20T02:16:57.794Z,90.59
2023-05-20T02:17:57.626Z,90.21
2023-05-20T02:18:57.432Z,90.50
2023-05-20T02:19:57.367Z,90.59
2023-05-20T02:20:57.320Z,91.16
2023-05-20T02:21:57.471Z,90.97
2023-05-20T02:22:57.522Z,90.97
2023-05-20T02:23:57.468Z,90.97
2023-05-20T02:24:57.145Z,91.36
2023-05-20T02:25:57.097Z,91.64
2023-05-20T02:26:57.078Z,91.45
2023-05-20T02:27:58.112Z,91.93
2023-05-20T02:28:56.964Z,92.31
2023-05-20T02:29:57.115Z,91.83
2023-05-20T02:30:56.878Z,92.12
2023-05-20T02:31:56.843Z,92.31
2023-05-20T02:32:57.158Z,91.64
2023-05-20T02:33:56.796Z,91.93
2023-05-20T02:34:56.957Z,91.83
2023-05-20T02:35:56.657Z,92.41
2023-05-20T02:36:57.779Z,92.41
2023-05-20T02:37:56.566Z,92.97
2023-05-20T02:38:57.782Z,92.88
2023-05-20T02:39:56.478Z,92.79
2023-05-20T02:40:56.577Z,93.46
2023-05-20T02:41:56.456Z,92.97
2023-05-20T02:42:57.624Z,92.97
2023-05-20T02:43:56.297Z,93.12
2023-05-20T02:44:56.284Z,93.60
2023-05-20T02:45:56.430Z,93.70
2023-05-20T02:46:56.170Z,94.27
2023-05-20T02:47:58.273Z,94.31
2023-05-20T02:48:56.076Z,94.31
2023-05-20T02:49:57.341Z,94.41
2023-05-20T02:50:56.284Z,94.31
2023-05-20T02:51:57.077Z,94.12
2023-05-20T02:52:55.911Z,94.12
2023-05-20T02:53:56.059Z,94.03
2023-05-20T02:54:57.909Z,93.55
2023-05-20T02:55:55.832Z,93.65
2023-05-20T02:56:55.866Z,93.36
2023-05-20T02:57:55.713Z,93.55
2023-05-20T02:58:56.920Z,93.26
2023-05-20T02:59:55.625Z,93.36
2023-05-20T03:00:55.552Z,93.36
2023-05-20T03:01:55.586Z,92.79
2023-05-20T03:02:55.514Z,93.17
2023-05-20T03:03:55.812Z,93.12
2023-05-20T03:04:55.485Z,92.74
2023-05-20T03:05:55.522Z,92.55
2023-05-20T03:06:55.535Z,92.64
2023-05-20T03:07:55.233Z,92.45
2023-05-20T03:08:56.365Z,91.97
2023-05-20T03:09:55.150Z,91.88
2023-05-20T03:10:55.355Z,91.97
2023-05-20T03:11:55.052Z,91.30
2023-05-20T03:12:55.004Z,91.11
2023-05-20T03:13:54.981Z,91.11
2023-05-20T03:14:56.204Z,91.21
2023-05-20T03:15:55.054Z,91.40
2023-05-20T03:16:54.992Z,90.73
2023-05-20T03:17:54.860Z,90.83
2023-05-20T03:18:54.800Z,90.45
2023-05-20T03:19:54.883Z,90.06
2023-05-20T03:20:54.720Z,90.25
2023-05-20T03:21:54.839Z,90.64
2023-05-20T03:22:54.569Z,89.68
2023-05-20T03:23:54.628Z,90.16
2023-05-20T03:24:54.472Z,89.68
2023-05-20T03:25:54.668Z,89.68
2023-05-20T03:26:54.751Z,89.92
2023-05-20T03:27:55.480Z,89.30
2023-05-20T03:28:54.298Z,89.20
2023-05-20T03:29:54.247Z,88.63
2023-05-20T03:30:54.233Z,88.34
2023-05-20T03:31:54.311Z,88.54
2023-05-20T03:32:54.167Z,88.54
2023-05-20T03:33:54.507Z,88.87
2023-05-20T03:34:54.026Z,88.68
2023-05-20T03:35:53.988Z,88.77
2023-05-20T03:36:53.953Z,88.92
2023-05-20T03:37:54.131Z,89.30
2023-05-20T03:38:53.884Z,89.30
2023-05-20T03:39:53.824Z,89.39
2023-05-20T03:40:53.942Z,89.87
2023-05-20T03:41:53.947Z,89.49
2023-05-20T03:42:53.680Z,89.59
2023-05-20T03:43:53.759Z,89.87
2023-05-20T03:44:53.584Z,90.06
2023-05-20T03:45:54.997Z,89.68
2023-05-20T03:46:53.529Z,89.34
2023-05-20T03:47:53.508Z,89.44
2023-05-20T03:48:53.601Z,89.01
2023-05-20T03:49:53.384Z,89.73
2023-05-20T03:50:53.597Z,89.87
2023-05-20T03:51:53.305Z,90.16
2023-05-20T03:52:53.516Z,89.53
2023-05-20T03:53:54.336Z,90.35
2023-05-20T03:54:54.418Z,90.78
2023-05-20T03:55:55.377Z,91.02
2023-05-20T03:56:53.060Z,91.21
2023-05-20T03:57:53.162Z,91.16
2023-05-20T03:58:53.199Z,91.02
2023-05-20T03:59:52.926Z,91.11
2023-05-20T04:00:52.874Z,91.25
2023-05-20T04:01:53.008Z,91.45
2023-05-20T04:02:52.949Z,91.45
2023-05-20T04:03:54.044Z,91.83
2023-05-20T04:04:52.698Z,91.06
2023-05-20T04:05:52.649Z,91.45
2023-05-20T04:06:52.792Z,91.25
2023-05-20T04:07:52.636Z,90.68
2023-05-20T04:08:52.816Z,90.30
2023-05-20T04:09:52.474Z,90.68
2023-05-20T04:10:54.673Z,90.20
2023-05-20T04:11:52.384Z,89.92
2023-05-20T04:12:52.657Z,89.53
2023-05-20T04:13:52.310Z,89.87
2023-05-20T04:14:52.465Z,90.20
2023-05-20T04:15:52.213Z,89.67
2023-05-20T04:16:52.520Z,89.67
2023-05-20T04:17:52.151Z,88.81
2023-05-20T04:18:52.311Z,89.01
2023-05-20T04:19:52.072Z,88.62
2023-05-20T04:20:52.025Z,88.34
2023-05-20T04:21:52.103Z,88.62
2023-05-20T04:22:51.924Z,87.95
2023-05-20T04:23:52.099Z,88.05
2023-05-20T04:24:51.812Z,87.86
2023-05-20T04:25:52.114Z,87.76
2023-05-20T04:26:51.726Z,87.76
2023-05-20T04:27:52.950Z,87.00
2023-05-20T04:28:51.670Z,86.71
2023-05-20T04:29:51.735Z,86.80
2023-05-20T04:30:51.549Z,86.71
2023-05-20T04:31:52.809Z,86.33
2023-05-20T04:32:51.471Z,86.33
2023-05-20T04:33:51.564Z,86.43
2023-05-20T04:34:52.588Z,86.08
2023-05-20T04:35:51.333Z,86.04
2023-05-20T04:36:51.596Z,85.51
2023-05-20T04:37:51.264Z,85.80
2023-05-20T04:38:51.404Z,85.51
2023-05-20T04:39:51.165Z,85.61
2023-05-20T04:40:51.107Z,85.13
2023-05-20T04:41:51.226Z,85.61
2023-05-20T04:42:51.035Z,84.94
2023-05-20T04:43:53.490Z,85.13
2023-05-20T04:44:50.934Z,84.46
2023-05-20T04:45:51.066Z,84.08
2023-05-20T04:46:50.872Z,84.36
2023-05-20T04:47:53.443Z,84.36
2023-05-20T04:48:50.760Z,83.79
2023-05-20T04:49:50.864Z,83.40
2023-05-20T04:50:50.676Z,82.97
2023-05-20T04:51:50.883Z,83.16
2023-05-20T04:52:50.711Z,83.06
2023-05-20T04:53:50.621Z,83.36
2023-05-20T04:54:50.699Z,82.87
2023-05-20T04:55:50.523Z,82.59
2023-05-20T04:56:51.527Z,82.49
2023-05-20T04:57:50.377Z,82.59
2023-05-20T04:58:50.326Z,81.73
2023-05-20T04:59:51.753Z,81.82
2023-05-20T05:00:50.240Z,81.63
2023-05-20T05:01:50.404Z,81.92
2023-05-20T05:02:50.208Z,82.01
2023-05-20T05:03:50.351Z,81.73
2023-05-20T05:04:50.076Z,81.44
2023-05-20T05:05:50.366Z,81.44
2023-05-20T05:06:49.999Z,81.54
2023-05-20T05:07:51.198Z,81.54
2023-05-20T05:08:49.926Z,81.73
2023-05-20T05:09:49.856Z,81.92
2023-05-20T05:10:49.828Z,82.11
2023-05-20T05:11:50.209Z,82.20
2023-05-20T05:12:49.728Z,81.63
2023-05-20T05:13:49.862Z,81.54
2023-05-20T05:14:49.634Z,81.63
2023-05-20T05:15:49.623Z,81.38
2023-05-20T05:16:49.551Z,81.77
2023-05-20T05:17:49.907Z,81.38
2023-05-20T05:18:49.524Z,81.38
2023-05-20T05:19:49.676Z,80.71
2023-05-20T05:20:49.389Z,80.90
2023-05-20T05:21:49.333Z,80.04
2023-05-20T05:22:49.310Z,79.75
2023-05-20T05:23:49.682Z,79.18
2023-05-20T05:24:49.206Z,78.64
2023-05-20T05:25:50.307Z,78.93
2023-05-20T05:26:49.175Z,78.84
2023-05-20T05:27:49.072Z,77.88
2023-05-20T05:28:49.037Z,79.03
2023-05-20T05:29:49.363Z,77.78
2023-05-20T05:30:48.976Z,77.21
2023-05-20T05:31:49.194Z,76.73
2023-05-20T05:32:48.962Z,76.54
2023-05-20T05:33:48.822Z,76.06
2023-05-20T05:34:48.772Z,75.71
2023-05-20T05:35:51.205Z,75.62
2023-05-20T05:36:48.690Z,75.04
2023-05-20T05:37:48.964Z,74.76
2023-05-20T05:38:48.597Z,74.95
2023-05-20T05:39:48.558Z,74.85
2023-05-20T05:40:48.679Z,73.80
2023-05-20T05:41:48.503Z,73.99
2023-05-20T05:42:48.632Z,73.80
2023-05-20T05:43:48.543Z,73.70
2023-05-20T05:44:48.505Z,73.70
2023-05-20T05:45:48.350Z,74.27
2023-05-20T05:46:49.378Z,73.93
2023-05-20T05:47:48.405Z,73.22
2023-05-20T05:48:48.327Z,73.74
2023-05-20T05:49:48.137Z,73.93
2023-05-20T05:50:49.374Z,73.65
2023-05-20T05:51:48.067Z,73.55
2023-05-20T05:52:48.150Z,73.74
2023-05-20T05:53:48.084Z,73.26
2023-05-20T05:54:47.964Z,73.26
2023-05-20T05:55:47.873Z,73.49
2023-05-20T05:56:47.837Z,73.55
2023-05-20T05:57:47.798Z,72.72
2023-05-20T05:58:48.810Z,73.10
2023-05-20T05:59:47.700Z,72.53
2023-05-20T06:03:47.500Z,72.53
2023-05-20T06:04:48.455Z,72.81
2023-05-20T06:05:47.329Z,72.81
2023-05-20T06:06:47.433Z,73.10
2023-05-20T06:07:47.218Z,72.43
2023-05-20T06:08:47.166Z,72.33
2023-05-20T06:09:47.250Z,72.43
2023-05-20T06:10:48.407Z,72.53
2023-05-20T06:11:47.074Z,72.81
2023-05-20T06:12:47.060Z,72.81
2023-05-20T06:13:47.088Z,73.00
2023-05-20T06:14:47.104Z,72.43
2023-05-20T06:15:46.865Z,72.43
2023-05-20T06:16:46.903Z,72.72
2023-05-20T06:17:46.833Z,71.80
2023-05-20T06:18:49.201Z,71.95
2023-05-20T06:19:46.715Z,71.47
2023-05-20T06:20:46.645Z,70.99
2023-05-20T06:21:46.722Z,71.03
2023-05-20T06:22:46.585Z,71.12
2023-05-20T06:23:46.544Z,70.74
2023-05-20T06:24:46.555Z,70.74
2023-05-20T06:25:46.442Z,70.55
2023-05-20T06:26:46.390Z,70.64
2023-05-20T06:27:47.404Z,70.36
2023-05-20T06:28:46.317Z,70.17
2023-05-20T06:29:48.650Z,69.78
2023-05-20T06:30:46.232Z,69.49
2023-05-20T06:31:46.388Z,69.53
2023-05-20T06:32:46.186Z,69.34
2023-05-20T06:33:46.199Z,68.95
2023-05-20T06:34:46.097Z,68.57
2023-05-20T06:35:48.060Z,68.15
2023-05-20T06:36:46.040Z,68.28
2023-05-20T06:37:46.014Z,68.37
2023-05-20T06:38:45.893Z,68.66
2023-05-20T06:39:46.211Z,68.28
2023-05-20T06:40:46.917Z,68.47
2023-05-20T06:41:45.860Z,68.37
2023-05-20T06:42:45.732Z,68.28
2023-05-20T06:43:45.696Z,68.08
2023-05-20T06:44:45.647Z,68.47
2023-05-20T06:45:45.672Z,68.18
2023-05-20T06:46:45.739Z,68.28
2023-05-20T06:47:45.750Z,67.80
2023-05-20T06:48:45.795Z,67.61
2023-05-20T06:49:47.410Z,67.83
2023-05-20T06:50:45.402Z,67.54
2023-05-20T06:51:46.652Z,67.25
2023-05-20T06:52:45.348Z,67.45
2023-05-20T06:53:45.433Z,66.97
2023-05-20T06:54:45.239Z,66.42
2023-05-20T06:55:45.198Z,66.14
2023-05-20T06:56:45.248Z,66.00
2023-05-20T06:57:45.309Z,66.77
2023-05-20T06:58:45.285Z,66.49
2023-05-20T06:59:45.130Z,66.10
2023-05-20T07:00:46.294Z,66.00
2023-05-20T07:01:45.053Z,66.49
2023-05-20T07:02:45.168Z,66.97
2023-05-20T07:03:44.937Z,66.58
2023-05-20T07:04:44.990Z,65.91
2023-05-20T07:05:44.786Z,66.58
2023-05-20T07:06:44.782Z,66.49
2023-05-20T07:07:44.700Z,66.49
2023-05-20T07:08:44.738Z,66.20
2023-05-20T07:09:44.624Z,66.04
2023-05-20T07:10:44.733Z,66.14
2023-05-20T07:11:44.588Z,66.04
2023-05-20T07:12:44.527Z,65.94
2023-05-20T07:13:44.461Z,65.66
2023-05-20T07:14:44.464Z,65.46
2023-05-20T07:15:44.400Z,65.46
2023-05-20T07:16:45.491Z,65.17
2023-05-20T07:17:44.324Z,65.17
2023-05-20T07:18:44.381Z,65.08
2023-05-20T07:19:44.237Z,65.17
2023-05-20T07:20:44.302Z,64.98
2023-05-20T07:21:44.126Z,64.89
2023-05-20T07:22:45.335Z,65.66
2023-05-20T07:23:44.198Z,65.56
2023-05-20T07:24:44.052Z,65.75
2023-05-20T07:25:44.026Z,66.33
2023-05-20T07:26:43.930Z,66.14
2023-05-20T07:27:44.044Z,66.42
2023-05-20T07:28:43.843Z,66.10
2023-05-20T07:29:44.048Z,66.10
2023-05-20T07:30:43.752Z,66.39
2023-05-20T07:31:43.911Z,66.00
2023-05-20T07:32:43.703Z,66.49
2023-05-20T07:33:43.889Z,66.00
2023-05-20T07:34:43.587Z,66.00
2023-05-20T07:35:43.581Z,66.39
2023-05-20T07:36:43.504Z,66.30
2023-05-20T07:37:44.948Z,65.94
2023-05-20T07:38:49.997Z,66.30
2023-05-20T07:39:43.387Z,65.91
2023-05-20T07:40:43.528Z,66.30
2023-05-20T07:41:43.353Z,66.39
2023-05-20T07:42:43.268Z,66.30
2023-05-20T07:43:43.275Z,66.49
2023-05-20T07:44:43.392Z,66.97
2023-05-20T07:45:43.193Z,67.45
2023-05-20T07:46:45.239Z,67.45
2023-05-20T07:47:43.080Z,67.07
2023-05-20T07:48:43.087Z,66.87
2023-05-20T07:49:42.989Z,67.07
2023-05-20T07:50:42.989Z,66.97
2023-05-20T07:51:42.914Z,67.25
2023-05-20T07:52:55.299Z,67.74
2023-05-20T07:53:42.840Z,67.74
2023-05-20T07:54:42.803Z,67.58
2023-05-20T07:55:42.725Z,66.52
2023-05-20T07:56:44.883Z,66.61
2023-05-20T07:57:44.163Z,66.14
2023-05-20T07:58:42.841Z,66.61
2023-05-20T07:59:42.602Z,66.23
2023-05-20T08:00:42.648Z,66.27
2023-05-20T08:01:42.516Z,66.07
2023-05-20T08:02:42.765Z,65.01
2023-05-20T08:03:42.470Z,65.11
2023-05-20T08:04:42.705Z,64.92
2023-05-20T08:05:42.324Z,64.73
2023-05-20T08:06:42.491Z,64.73
2023-05-20T08:07:42.325Z,64.76
2023-05-20T08:08:43.318Z,64.66
2023-05-20T08:09:42.161Z,64.47
2023-05-20T08:10:42.307Z,63.89
2023-05-20T08:11:42.081Z,64.47
2023-05-20T08:12:42.128Z,63.70
2023-05-20T08:13:41.988Z,63.99
2023-05-20T08:14:42.139Z,63.70
2023-05-20T08:15:41.909Z,63.89
2023-05-20T08:16:42.192Z,63.89
2023-05-20T08:17:41.895Z,63.70
2023-05-20T08:18:42.022Z,63.51
2023-05-20T08:19:41.751Z,64.08
2023-05-20T08:20:42.794Z,63.70
2023-05-20T08:21:41.663Z,63.28
2023-05-20T08:22:42.817Z,63.86
2023-05-20T08:23:41.633Z,64.40
2023-05-20T08:24:41.793Z,64.98
2023-05-20T08:25:41.512Z,65.08
2023-05-20T08:26:41.608Z,65.17
2023-05-20T08:27:41.463Z,65.20
2023-05-20T08:28:42.882Z,65.30
2023-05-20T08:29:41.334Z,64.76
2023-05-20T08:30:42.502Z,64.28
2023-05-20T08:31:41.314Z,64.40
2023-05-20T08:32:41.476Z,63.82
2023-05-20T08:33:41.172Z,62.87
2023-05-20T08:34:41.165Z,62.51
2023-05-20T08:35:41.266Z,60.97
2023-05-20T08:36:41.048Z,60.77
2023-05-20T08:37:41.008Z,60.39
2023-05-20T08:38:43.331Z,59.62
2023-05-20T08:39:40.933Z,60.68
2023-05-20T08:40:41.094Z,59.72
2023-05-20T08:41:40.846Z,59.72
2023-05-20T08:42:41.932Z,59.81
2023-05-20T08:43:40.773Z,60.49
2023-05-20T08:44:40.926Z,60.49
2023-05-20T08:45:42.067Z,61.16
2023-05-20T08:46:40.769Z,60.00
2023-05-20T08:47:40.655Z,59.72
2023-05-20T08:48:40.742Z,59.55
2023-05-20T08:49:40.534Z,59.36
2023-05-20T08:50:40.759Z,59.52
2023-05-20T08:51:40.449Z,60.00
2023-05-20T08:52:40.571Z,60.00
2023-05-20T08:53:40.381Z,60.00
2023-05-20T08:54:40.368Z,60.00
2023-05-20T08:55:40.292Z,60.00
2023-05-20T08:56:41.417Z,59.88
2023-05-20T08:57:40.220Z,59.97
2023-05-20T08:58:41.439Z,60.55
2023-05-20T08:59:41.490Z,60.75
2023-05-20T09:00:40.229Z,60.36
2023-05-20T09:01:40.284Z,60.36
2023-05-20T09:02:40.064Z,61.39
2023-05-20T09:03:42.335Z,61.77
2023-05-20T09:04:39.993Z,62.45
2023-05-20T09:05:42.105Z,62.64
2023-05-20T09:06:39.980Z,62.54
2023-05-20T09:07:39.870Z,62.64
2023-05-20T09:08:39.773Z,61.97
2023-05-20T09:09:40.089Z,62.35
2023-05-20T09:10:39.716Z,62.45
2023-05-20T09:11:39.945Z,62.16
2023-05-20T09:12:39.612Z,62.35
2023-05-20T09:13:39.623Z,62.26
2023-05-20T09:14:39.579Z,62.54
2023-05-20T09:15:40.740Z,62.45
2023-05-20T09:16:39.589Z,62.26
2023-05-20T09:17:39.595Z,62.54
2023-05-20T09:18:39.643Z,62.74
2023-05-20T09:19:39.359Z,63.02
2023-05-20T09:20:39.283Z,63.31
2023-05-20T09:21:39.377Z,62.83
2023-05-20T09:22:39.197Z,62.83
2023-05-20T09:23:39.375Z,62.35
2023-05-20T09:24:39.143Z,62.54
2023-05-20T09:25:39.240Z,62.64
2023-05-20T09:26:39.235Z,62.83
2023-05-20T09:27:39.022Z,62.74
2023-05-20T09:28:39.399Z,62.54
2023-05-20T09:29:38.915Z,62.54
2023-05-20T09:30:39.007Z,63.02
2023-05-20T09:31:39.070Z,62.93
2023-05-20T09:32:39.075Z,63.41
2023-05-20T09:33:38.752Z,63.31
2023-05-20T09:34:38.830Z,62.93
2023-05-20T09:35:38.677Z,62.64
2023-05-20T09:36:38.849Z,62.83
2023-05-20T09:37:38.600Z,62.93
2023-05-20T09:38:38.863Z,62.64
2023-05-20T09:39:38.583Z,62.35
2023-05-20T09:40:38.672Z,62.45
2023-05-20T09:41:38.523Z,62.26
2023-05-20T09:42:39.525Z,62.64
2023-05-20T09:43:38.340Z,62.64
2023-05-20T09:44:38.495Z,62.16
2023-05-20T09:45:38.258Z,61.90
2023-05-20T09:46:59.810Z,61.71
2023-05-20T09:47:38.200Z,61.80
2023-05-20T09:48:38.353Z,61.04
2023-05-20T09:49:38.139Z,61.22
2023-05-20T09:50:40.385Z,61.52
2023-05-20T09:51:38.069Z,61.61
2023-05-20T09:52:38.148Z,61.61
2023-05-20T09:53:37.934Z,61.61
2023-05-20T09:54:38.977Z,61.80
2023-05-20T09:55:37.993Z,61.80
2023-05-20T09:56:37.973Z,61.61
2023-05-20T09:57:37.784Z,61.80
2023-05-20T09:58:39.213Z,61.35
2023-05-20T09:59:37.684Z,61.07
2023-05-20T10:00:37.814Z,60.90
2023-05-20T10:01:37.709Z,60.13
2023-05-20T10:02:37.971Z,59.94
2023-05-20T10:03:37.670Z,58.52
2023-05-20T10:04:37.642Z,58.17
2023-05-20T10:05:37.467Z,58.17
2023-05-20T10:06:37.636Z,57.52
2023-05-20T10:07:42.148Z,56.72
2023-05-20T10:08:37.444Z,55.85
2023-05-20T10:09:37.296Z,55.85
2023-05-20T10:10:37.713Z,56.72
2023-05-20T10:11:37.280Z,56.62
2023-05-20T10:12:38.301Z,56.81
2023-05-20T10:13:37.324Z,56.69
2023-05-20T10:14:37.113Z,57.46
2023-05-20T10:15:37.507Z,57.46
2023-05-20T10:16:37.017Z,57.56
2023-05-20T10:17:37.145Z,56.88
2023-05-20T10:18:36.954Z,57.75
2023-05-20T10:19:57.919Z,57.37
2023-05-20T10:20:36.867Z,57.75
2023-05-20T10:21:36.928Z,57.72
2023-05-20T10:22:36.785Z,58.20
2023-05-20T10:23:36.954Z,58.59
2023-05-20T10:24:38.085Z,58.97
2023-05-20T10:25:36.967Z,58.23
2023-05-20T10:26:36.711Z,58.33
2023-05-20T10:27:36.774Z,58.78
2023-05-20T10:28:36.572Z,58.59
2023-05-20T10:29:36.783Z,58.59
2023-05-20T10:30:36.854Z,58.95
2023-05-20T10:31:36.597Z,58.85
2023-05-20T10:32:36.460Z,60.07
2023-05-20T10:33:57.515Z,60.75
2023-05-20T10:34:36.344Z,60.39
2023-05-20T10:35:36.420Z,60.58
2023-05-20T10:36:36.231Z,60.68
2023-05-20T10:37:36.438Z,60.49
2023-05-20T10:38:36.147Z,60.68
2023-05-20T10:39:36.238Z,60.87
2023-05-20T10:40:36.534Z,60.58
2023-05-20T10:41:37.283Z,60.58
2023-05-20T10:42:36.007Z,60.68
2023-05-20T10:43:36.067Z,60.87
2023-05-20T10:44:35.922Z,60.32
2023-05-20T10:45:37.108Z,59.94
2023-05-20T10:46:51.444Z,59.36
2023-05-20T10:47:35.887Z,59.65
2023-05-20T10:48:35.998Z,59.36
2023-05-20T10:49:35.729Z,59.48
2023-05-20T10:50:35.884Z,59.20
2023-05-20T10:51:36.743Z,59.13
2023-05-20T10:52:35.767Z,58.00
2023-05-20T10:53:35.734Z,56.07
2023-05-20T10:54:35.518Z,55.42
2023-05-20T10:55:35.744Z,55.42
2023-05-20T10:56:35.438Z,55.45
2023-05-20T10:57:36.587Z,54.87
2023-05-20T10:58:35.366Z,54.68
2023-05-20T10:59:37.421Z,54.80
2023-05-20T11:00:35.654Z,54.41
2023-05-20T11:01:35.500Z,54.03
2023-05-20T11:02:35.288Z,53.74
2023-05-20T11:03:36.762Z,53.55
2023-05-20T11:04:35.370Z,53.93
2023-05-20T11:05:35.224Z,53.71
2023-05-20T11:06:35.086Z,54.10
2023-05-20T11:07:35.249Z,54.58
2023-05-20T11:08:35.077Z,54.27
2023-05-20T11:09:35.287Z,54.65
2023-05-20T11:10:35.272Z,54.75
2023-05-20T11:11:35.042Z,54.72
2023-05-20T11:12:34.853Z,54.91
2023-05-20T11:13:35.057Z,55.30
2023-05-20T11:14:35.958Z,55.59
2023-05-20T11:15:36.923Z,56.07
2023-05-20T11:16:34.708Z,56.00
2023-05-20T11:17:34.904Z,55.83
2023-05-20T11:18:34.593Z,54.99
2023-05-20T11:19:34.800Z,54.41
2023-05-20T11:20:34.716Z,53.86
2023-05-20T11:21:35.740Z,52.82
2023-05-20T11:22:34.434Z,52.14
2023-05-20T11:23:34.526Z,52.24
2023-05-20T11:24:34.357Z,52.14
2023-05-20T11:25:35.556Z,51.28
2023-05-20T11:26:35.773Z,50.98
2023-05-20T11:27:34.253Z,50.98
2023-05-20T11:28:35.376Z,51.47
2023-05-20T11:29:34.175Z,51.73
2023-05-20T11:30:34.527Z,51.83
2023-05-20T11:31:34.160Z,51.93
2023-05-20T11:32:34.277Z,52.61
2023-05-20T11:33:34.181Z,52.67
2023-05-20T11:34:33.995Z,52.97
2023-05-20T11:35:55.093Z,52.67
2023-05-20T11:36:33.927Z,53.25
2023-05-20T11:37:34.014Z,53.16
2023-05-20T11:38:36.268Z,53.45
2023-05-20T11:39:33.829Z,53.45
2023-05-20T11:40:46.282Z,52.89
2023-05-20T11:41:33.743Z,52.31
2023-05-20T11:42:34.040Z,52.61
2023-05-20T11:43:33.644Z,52.58
2023-05-20T11:44:33.623Z,52.29
2023-05-20T11:45:33.867Z,52.97
2023-05-20T11:46:33.592Z,52.99
2023-05-20T11:47:33.686Z,52.89
2023-05-20T11:48:33.452Z,53.38
2023-05-20T11:49:34.727Z,53.93
2023-05-20T11:50:33.877Z,53.35
2023-05-20T11:51:33.346Z,53.91
2023-05-20T11:52:35.153Z,53.71
2023-05-20T11:53:33.261Z,53.91
2023-05-20T11:54:33.523Z,53.91
2023-05-20T11:55:33.210Z,54.13
2023-05-20T11:56:54.429Z,53.74
2023-05-20T11:57:33.116Z,54.32
2023-05-20T11:58:33.546Z,53.83
2023-05-20T11:59:33.038Z,53.64
2023-05-20T12:00:49.407Z,53.74
2023-05-20T12:01:33.161Z,54.00
2023-05-20T12:02:33.010Z,53.74
2023-05-20T12:03:33.179Z,53.81
2023-05-20T12:04:33.020Z,54.10
2023-05-20T12:05:32.808Z,53.91
2023-05-20T12:06:32.890Z,54.00
2023-05-20T12:07:32.731Z,53.71
2023-05-20T12:08:32.902Z,54.29
2023-05-20T12:09:32.971Z,54.00
2023-05-20T12:10:34.248Z,53.71
2023-05-20T12:11:32.567Z,54.19
2023-05-20T12:12:32.738Z,54.49
2023-05-20T12:13:34.999Z,54.58
2023-05-20T12:14:32.951Z,55.35
2023-05-20T12:15:32.549Z,54.84
2023-05-20T12:16:32.405Z,55.33
2023-05-20T12:17:32.634Z,55.62
2023-05-20T12:18:32.308Z,55.90
2023-05-20T12:19:34.442Z,55.68
2023-05-20T12:20:32.459Z,56.16
2023-05-20T12:21:32.279Z,56.33
2023-05-20T12:22:33.445Z,57.01
2023-05-20T12:23:32.106Z,57.29
2023-05-20T12:24:32.214Z,57.94
2023-05-20T12:25:32.100Z,57.75
2023-05-20T12:26:33.252Z,58.42
2023-05-20T12:27:33.454Z,59.20
2023-05-20T12:28:31.917Z,59.48
2023-05-20T12:29:33.136Z,59.30
2023-05-20T12:30:31.928Z,59.36
2023-05-20T12:31:33.940Z,59.27
2023-05-20T12:32:31.788Z,59.07
2023-05-20T12:33:32.068Z,59.55
2023-05-20T12:34:31.676Z,59.45
2023-05-20T12:35:33.920Z,59.55
2023-05-20T12:36:31.641Z,59.45
2023-05-20T12:37:34.855Z,59.65
2023-05-20T12:38:31.615Z,60.03
2023-05-20T12:39:31.905Z,59.87
2023-05-20T12:40:31.754Z,60.06
2023-05-20T12:41:31.396Z,59.52
2023-05-20T12:42:31.510Z,59.13
2023-05-20T12:43:31.325Z,59.32
2023-05-20T12:44:31.645Z,59.13
2023-05-20T12:45:31.374Z,58.39
2023-05-20T12:46:31.240Z,58.58
2023-05-20T12:47:31.362Z,58.48
2023-05-20T12:48:31.120Z,58.19
2023-05-20T12:49:31.361Z,58.29
2023-05-20T12:50:31.040Z,58.42
2023-05-20T12:51:33.224Z,57.81
2023-05-20T12:52:52.277Z,57.52
2023-05-20T12:53:31.234Z,58.00
2023-05-20T12:54:31.212Z,57.42